sensor_id;sensor_type;location;lat;lon;timestamp;P1;durP1;ratioP1;P2;durP2;ratioP2
21107;SDS011;10712;52.944;9.098;2023-08-01T00:01:01;2.63;;;2.42;;
21107;SDS011;10712;52.944;9.098;2023-08-01T00:03:28;5.57;;;2.58;;
21107;SDS011;10712;52.944;9.098;2023-08-01T00:05:54;3.05;;;2.00;;
21107;SDS011;10712;52.944;9.098;2023-08-01T00:08:20;2.35;;;2.15;;
21107;SDS011;10712;52.944;9.098;2023-08-01T00:10:46;3.45;;;2.35;;
21107;SDS011;10712;52.944;9.098;2023-08-01T00:13:13;2.38;;;2.17;;
21107;SDS011;10712;52.944;9.098;2023-08-01T00:15:39;2.60;;;2.40;;
21107;SDS011;10712;52.944;9.098;2023-08-01T00:18:04;3.42;;;2.35;;
21107;SDS011;10712;52.944;9.098;2023-08-01T00:20:30;2.60;;;2.40;;
21107;SDS011;10712;52.944;9.098;2023-08-01T00:22:56;3.72;;;2.55;;
21107;SDS011;10712;52.944;9.098;2023-08-01T00:25:22;2.67;;;2.00;;
21107;SDS011;10712;52.944;9.098;2023-08-01T00:27:48;2.75;;;2.55;;
21107;SDS011;10712;52.944;9.098;2023-08-01T00:30:14;2.92;;;2.65;;
21107;SDS011;10712;52.944;9.098;2023-08-01T00:32:40;2.80;;;2.60;;
21107;SDS011;10712;52.944;9.098;2023-08-01T00:35:07;3.05;;;2.75;;
21107;SDS011;10712;52.944;9.098;2023-08-01T00:37:33;4.65;;;2.50;;
21107;SDS011;10712;52.944;9.098;2023-08-01T00:39:59;2.33;;;2.13;;
21107;SDS011;10712;52.944;9.098;2023-08-01T00:42:25;3.75;;;3.13;;
21107;SDS011;10712;52.944;9.098;2023-08-01T00:44:50;3.03;;;2.63;;
21107;SDS011;10712;52.944;9.098;2023-08-01T00:47:16;5.93;;;3.03;;
21107;SDS011;10712;52.944;9.098;2023-08-01T00:49:43;4.75;;;2.70;;
21107;SDS011;10712;52.944;9.098;2023-08-01T00:52:09;2.60;;;2.40;;
21107;SDS011;10712;52.944;9.098;2023-08-01T00:54:35;3.42;;;2.83;;
21107;SDS011;10712;52.944;9.098;2023-08-01T00:57:04;3.40;;;2.47;;
21107;SDS011;10712;52.944;9.098;2023-08-01T00:59:31;3.08;;;2.78;;
21107;SDS011;10712;52.944;9.098;2023-08-01T01:02:00;3.47;;;2.60;;
21107;SDS011;10712;52.944;9.098;2023-08-01T01:04:27;3.17;;;2.75;;
21107;SDS011;10712;52.944;9.098;2023-08-01T01:07:00;2.47;;;2.28;;
21107;SDS011;10712;52.944;9.098;2023-08-01T01:09:31;2.70;;;2.28;;
21107;SDS011;10712;52.944;9.098;2023-08-01T01:11:57;2.90;;;2.63;;
21107;SDS011;10712;52.944;9.098;2023-08-01T01:14:25;5.47;;;2.70;;
21107;SDS011;10712;52.944;9.098;2023-08-01T01:16:51;3.75;;;3.40;;
21107;SDS011;10712;52.944;9.098;2023-08-01T01:19:17;5.60;;;3.28;;
21107;SDS011;10712;52.944;9.098;2023-08-01T01:21:43;5.28;;;2.78;;
21107;SDS011;10712;52.944;9.098;2023-08-01T01:24:11;4.15;;;2.80;;
21107;SDS011;10712;52.944;9.098;2023-08-01T01:26:40;3.63;;;2.58;;
21107;SDS011;10712;52.944;9.098;2023-08-01T01:29:07;3.78;;;2.70;;
21107;SDS011;10712;52.944;9.098;2023-08-01T01:31:36;2.97;;;2.78;;
21107;SDS011;10712;52.944;9.098;2023-08-01T01:34:03;4.00;;;2.60;;
21107;SDS011;10712;52.944;9.098;2023-08-01T01:36:29;3.83;;;2.83;;
21107;SDS011;10712;52.944;9.098;2023-08-01T01:38:55;3.03;;;2.47;;
21107;SDS011;10712;52.944;9.098;2023-08-01T01:41:21;6.07;;;3.10;;
21107;SDS011;10712;52.944;9.098;2023-08-01T01:43:47;3.78;;;2.88;;
21107;SDS011;10712;52.944;9.098;2023-08-01T01:46:14;3.00;;;2.65;;
21107;SDS011;10712;52.944;9.098;2023-08-01T01:48:40;3.30;;;3.00;;
21107;SDS011;10712;52.944;9.098;2023-08-01T01:51:07;2.40;;;2.17;;
21107;SDS011;10712;52.944;9.098;2023-08-01T01:53:33;4.60;;;2.78;;
21107;SDS011;10712;52.944;9.098;2023-08-01T01:55:59;3.13;;;2.78;;
21107;SDS011;10712;52.944;9.098;2023-08-01T01:58:26;6.07;;;3.67;;
21107;SDS011;10712;52.944;9.098;2023-08-01T02:00:52;5.45;;;3.35;;
21107;SDS011;10712;52.944;9.098;2023-08-01T02:03:18;5.97;;;3.67;;
21107;SDS011;10712;52.944;9.098;2023-08-01T02:05:44;5.28;;;3.40;;
21107;SDS011;10712;52.944;9.098;2023-08-01T02:08:10;3.28;;;2.97;;
21107;SDS011;10712;52.944;9.098;2023-08-01T02:10:36;4.68;;;3.08;;
21107;SDS011;10712;52.944;9.098;2023-08-01T02:13:02;4.07;;;2.85;;
21107;SDS011;10712;52.944;9.098;2023-08-01T02:15:27;4.90;;;3.20;;
21107;SDS011;10712;52.944;9.098;2023-08-01T02:17:53;5.38;;;3.30;;
21107;SDS011;10712;52.944;9.098;2023-08-01T02:20:20;4.47;;;3.20;;
21107;SDS011;10712;52.944;9.098;2023-08-01T02:22:45;3.20;;;2.78;;
21107;SDS011;10712;52.944;9.098;2023-08-01T02:25:11;3.05;;;2.47;;
21107;SDS011;10712;52.944;9.098;2023-08-01T02:27:37;5.88;;;3.30;;
21107;SDS011;10712;52.944;9.098;2023-08-01T02:30:03;2.95;;;2.72;;
21107;SDS011;10712;52.944;9.098;2023-08-01T02:32:30;5.82;;;3.20;;
21107;SDS011;10712;52.944;9.098;2023-08-01T02:34:57;3.10;;;2.90;;
21107;SDS011;10712;52.944;9.098;2023-08-01T02:37:23;5.80;;;3.30;;
21107;SDS011;10712;52.944;9.098;2023-08-01T02:39:49;3.17;;;2.78;;
21107;SDS011;10712;52.944;9.098;2023-08-01T02:42:15;4.40;;;2.72;;
21107;SDS011;10712;52.944;9.098;2023-08-01T02:44:40;5.38;;;2.80;;
21107;SDS011;10712;52.944;9.098;2023-08-01T02:47:06;3.45;;;2.97;;
21107;SDS011;10712;52.944;9.098;2023-08-01T02:49:32;4.70;;;2.58;;
21107;SDS011;10712;52.944;9.098;2023-08-01T02:51:58;2.97;;;2.78;;
21107;SDS011;10712;52.944;9.098;2023-08-01T02:54:24;2.72;;;2.53;;
21107;SDS011;10712;52.944;9.098;2023-08-01T02:56:50;4.15;;;2.65;;
21107;SDS011;10712;52.944;9.098;2023-08-01T02:59:16;2.80;;;2.60;;
21107;SDS011;10712;52.944;9.098;2023-08-01T03:01:43;4.20;;;2.67;;
21107;SDS011;10712;52.944;9.098;2023-08-01T03:04:09;3.88;;;3.08;;
21107;SDS011;10712;52.944;9.098;2023-08-01T03:06:37;5.43;;;3.20;;
21107;SDS011;10712;52.944;9.098;2023-08-01T03:09:03;10.00;;;3.40;;
21107;SDS011;10712;52.944;9.098;2023-08-01T03:11:33;4.60;;;3.30;;
21107;SDS011;10712;52.944;9.098;2023-08-01T03:14:01;3.50;;;3.08;;
21107;SDS011;10712;52.944;9.098;2023-08-01T03:16:29;6.35;;;3.15;;
21107;SDS011;10712;52.944;9.098;2023-08-01T03:18:56;3.00;;;2.75;;
21107;SDS011;10712;52.944;9.098;2023-08-01T03:21:23;5.25;;;3.33;;
21107;SDS011;10712;52.944;9.098;2023-08-01T03:23:48;5.20;;;2.70;;
21107;SDS011;10712;52.944;9.098;2023-08-01T03:26:14;3.53;;;3.22;;
21107;SDS011;10712;52.944;9.098;2023-08-01T03:28:41;3.05;;;2.63;;
21107;SDS011;10712;52.944;9.098;2023-08-01T03:31:07;4.07;;;3.50;;
21107;SDS011;10712;52.944;9.098;2023-08-01T03:33:33;5.10;;;3.95;;
21107;SDS011;10712;52.944;9.098;2023-08-01T03:35:59;6.55;;;4.18;;
21107;SDS011;10712;52.944;9.098;2023-08-01T03:38:25;4.13;;;3.72;;
21107;SDS011;10712;52.944;9.098;2023-08-01T03:40:50;5.65;;;4.13;;
21107;SDS011;10712;52.944;9.098;2023-08-01T03:43:16;4.90;;;4.07;;
21107;SDS011;10712;52.944;9.098;2023-08-01T03:45:42;5.03;;;4.25;;
21107;SDS011;10712;52.944;9.098;2023-08-01T03:48:08;6.22;;;4.68;;
21107;SDS011;10712;52.944;9.098;2023-08-01T03:50:34;6.85;;;4.65;;
21107;SDS011;10712;52.944;9.098;2023-08-01T03:53:01;6.45;;;5.00;;
21107;SDS011;10712;52.944;9.098;2023-08-01T03:55:26;8.57;;;5.40;;
21107;SDS011;10712;52.944;9.098;2023-08-01T03:57:52;7.45;;;5.55;;
21107;SDS011;10712;52.944;9.098;2023-08-01T04:00:18;5.15;;;4.75;;
21107;SDS011;10712;52.944;9.098;2023-08-01T04:02:44;6.50;;;5.22;;
21107;SDS011;10712;52.944;9.098;2023-08-01T04:05:10;5.05;;;4.55;;
21107;SDS011;10712;52.944;9.098;2023-08-01T04:07:36;6.05;;;5.35;;
21107;SDS011;10712;52.944;9.098;2023-08-01T04:10:03;5.63;;;5.07;;
21107;SDS011;10712;52.944;9.098;2023-08-01T04:12:32;6.78;;;5.97;;
21107;SDS011;10712;52.944;9.098;2023-08-01T04:15:00;6.55;;;5.65;;
21107;SDS011;10712;52.944;9.098;2023-08-01T04:17:26;8.68;;;6.00;;
21107;SDS011;10712;52.944;9.098;2023-08-01T04:19:52;13.45;;;7.10;;
21107;SDS011;10712;52.944;9.098;2023-08-01T04:22:18;9.18;;;6.65;;
21107;SDS011;10712;52.944;9.098;2023-08-01T04:24:44;12.00;;;6.50;;
21107;SDS011;10712;52.944;9.098;2023-08-01T04:27:09;9.60;;;6.57;;
21107;SDS011;10712;52.944;9.098;2023-08-01T04:29:35;7.85;;;7.05;;
21107;SDS011;10712;52.944;9.098;2023-08-01T04:32:01;7.57;;;6.38;;
21107;SDS011;10712;52.944;9.098;2023-08-01T04:34:27;7.97;;;6.82;;
21107;SDS011;10712;52.944;9.098;2023-08-01T04:36:53;13.00;;;8.05;;
21107;SDS011;10712;52.944;9.098;2023-08-01T04:39:18;8.25;;;7.30;;
21107;SDS011;10712;52.944;9.098;2023-08-01T04:41:44;7.72;;;6.60;;
21107;SDS011;10712;52.944;9.098;2023-08-01T04:44:10;8.93;;;7.22;;
21107;SDS011;10712;52.944;9.098;2023-08-01T04:46:35;9.75;;;7.32;;
21107;SDS011;10712;52.944;9.098;2023-08-01T04:49:01;10.38;;;8.57;;
21107;SDS011;10712;52.944;9.098;2023-08-01T04:51:27;14.73;;;8.60;;
21107;SDS011;10712;52.944;9.098;2023-08-01T04:53:53;8.70;;;7.82;;
21107;SDS011;10712;52.944;9.098;2023-08-01T04:56:19;8.48;;;7.68;;
21107;SDS011;10712;52.944;9.098;2023-08-01T04:58:44;11.57;;;8.27;;
21107;SDS011;10712;52.944;9.098;2023-08-01T05:01:10;9.77;;;8.77;;
21107;SDS011;10712;52.944;9.098;2023-08-01T05:03:36;8.57;;;7.60;;
21107;SDS011;10712;52.944;9.098;2023-08-01T05:06:02;15.02;;;8.48;;
21107;SDS011;10712;52.944;9.098;2023-08-01T05:08:28;16.13;;;8.82;;
21107;SDS011;10712;52.944;9.098;2023-08-01T05:10:54;10.52;;;9.45;;
21107;SDS011;10712;52.944;9.098;2023-08-01T05:13:19;9.70;;;8.02;;
21107;SDS011;10712;52.944;9.098;2023-08-01T05:15:45;11.98;;;9.00;;
21107;SDS011;10712;52.944;9.098;2023-08-01T05:18:17;11.32;;;8.50;;
21107;SDS011;10712;52.944;9.098;2023-08-01T05:20:47;11.40;;;8.95;;
21107;SDS011;10712;52.944;9.098;2023-08-01T05:23:13;14.10;;;9.07;;
21107;SDS011;10712;52.944;9.098;2023-08-01T05:25:39;9.15;;;7.47;;
21107;SDS011;10712;52.944;9.098;2023-08-01T05:28:04;13.10;;;9.13;;
21107;SDS011;10712;52.944;9.098;2023-08-01T05:30:30;12.32;;;10.20;;
21107;SDS011;10712;52.944;9.098;2023-08-01T05:32:56;9.82;;;8.55;;
21107;SDS011;10712;52.944;9.098;2023-08-01T05:35:22;9.82;;;8.82;;
21107;SDS011;10712;52.944;9.098;2023-08-01T05:37:47;11.18;;;8.73;;
21107;SDS011;10712;52.944;9.098;2023-08-01T05:40:13;10.38;;;9.27;;
21107;SDS011;10712;52.944;9.098;2023-08-01T05:42:39;10.57;;;9.02;;
21107;SDS011;10712;52.944;9.098;2023-08-01T05:45:05;9.05;;;8.05;;
21107;SDS011;10712;52.944;9.098;2023-08-01T05:47:31;10.93;;;9.50;;
21107;SDS011;10712;52.944;9.098;2023-08-01T05:49:57;13.38;;;9.93;;
21107;SDS011;10712;52.944;9.098;2023-08-01T05:52:23;14.45;;;9.73;;
21107;SDS011;10712;52.944;9.098;2023-08-01T05:54:49;14.63;;;10.40;;
21107;SDS011;10712;52.944;9.098;2023-08-01T05:57:15;11.13;;;9.23;;
21107;SDS011;10712;52.944;9.098;2023-08-01T05:59:40;11.45;;;9.25;;
21107;SDS011;10712;52.944;9.098;2023-08-01T06:02:06;9.05;;;7.78;;
21107;SDS011;10712;52.944;9.098;2023-08-01T06:04:32;13.65;;;10.43;;
21107;SDS011;10712;52.944;9.098;2023-08-01T06:06:58;15.35;;;10.65;;
21107;SDS011;10712;52.944;9.098;2023-08-01T06:09:24;13.57;;;11.23;;
21107;SDS011;10712;52.944;9.098;2023-08-01T06:11:50;14.52;;;9.77;;
21107;SDS011;10712;52.944;9.098;2023-08-01T06:14:17;12.23;;;10.15;;
21107;SDS011;10712;52.944;9.098;2023-08-01T06:16:42;9.93;;;8.85;;
21107;SDS011;10712;52.944;9.098;2023-08-01T06:19:08;18.63;;;10.68;;
21107;SDS011;10712;52.944;9.098;2023-08-01T06:21:34;13.43;;;10.73;;
21107;SDS011;10712;52.944;9.098;2023-08-01T06:24:00;17.95;;;11.10;;
21107;SDS011;10712;52.944;9.098;2023-08-01T06:26:26;12.38;;;10.02;;
21107;SDS011;10712;52.944;9.098;2023-08-01T06:28:52;10.43;;;9.10;;
21107;SDS011;10712;52.944;9.098;2023-08-01T06:31:19;14.18;;;10.00;;
21107;SDS011;10712;52.944;9.098;2023-08-01T06:33:46;12.43;;;9.25;;
21107;SDS011;10712;52.944;9.098;2023-08-01T06:36:11;9.02;;;8.10;;
21107;SDS011;10712;52.944;9.098;2023-08-01T06:38:38;9.55;;;7.68;;
21107;SDS011;10712;52.944;9.098;2023-08-01T06:41:04;9.63;;;7.88;;
21107;SDS011;10712;52.944;9.098;2023-08-01T06:43:30;13.27;;;10.45;;
21107;SDS011;10712;52.944;9.098;2023-08-01T06:45:56;14.20;;;10.32;;
21107;SDS011;10712;52.944;9.098;2023-08-01T06:48:21;15.25;;;9.93;;
21107;SDS011;10712;52.944;9.098;2023-08-01T06:50:47;11.65;;;8.32;;
21107;SDS011;10712;52.944;9.098;2023-08-01T06:53:13;11.70;;;9.07;;
21107;SDS011;10712;52.944;9.098;2023-08-01T06:55:39;15.10;;;10.52;;
21107;SDS011;10712;52.944;9.098;2023-08-01T06:58:05;14.93;;;10.35;;
21107;SDS011;10712;52.944;9.098;2023-08-01T07:00:31;14.45;;;10.15;;
21107;SDS011;10712;52.944;9.098;2023-08-01T07:02:57;10.60;;;9.48;;
21107;SDS011;10712;52.944;9.098;2023-08-01T07:05:23;13.38;;;10.30;;
21107;SDS011;10712;52.944;9.098;2023-08-01T07:07:49;13.55;;;10.45;;
21107;SDS011;10712;52.944;9.098;2023-08-01T07:10:15;14.98;;;11.10;;
21107;SDS011;10712;52.944;9.098;2023-08-01T07:12:41;19.15;;;10.65;;
21107;SDS011;10712;52.944;9.098;2023-08-01T07:15:07;15.25;;;11.23;;
21107;SDS011;10712;52.944;9.098;2023-08-01T07:17:34;15.00;;;10.85;;
21107;SDS011;10712;52.944;9.098;2023-08-01T07:19:59;13.85;;;10.55;;
21107;SDS011;10712;52.944;9.098;2023-08-01T07:22:25;13.45;;;10.10;;
21107;SDS011;10712;52.944;9.098;2023-08-01T07:24:54;13.70;;;10.30;;
21107;SDS011;10712;52.944;9.098;2023-08-01T07:27:20;14.68;;;9.60;;
21107;SDS011;10712;52.944;9.098;2023-08-01T07:29:47;15.43;;;9.80;;
21107;SDS011;10712;52.944;9.098;2023-08-01T07:32:13;13.77;;;10.05;;
21107;SDS011;10712;52.944;9.098;2023-08-01T07:34:40;12.45;;;9.90;;
21107;SDS011;10712;52.944;9.098;2023-08-01T07:37:06;16.33;;;9.88;;
21107;SDS011;10712;52.944;9.098;2023-08-01T07:39:31;10.73;;;7.97;;
21107;SDS011;10712;52.944;9.098;2023-08-01T07:42:00;8.77;;;6.68;;
21107;SDS011;10712;52.944;9.098;2023-08-01T07:44:25;8.63;;;5.75;;
21107;SDS011;10712;52.944;9.098;2023-08-01T07:46:51;6.88;;;5.50;;
21107;SDS011;10712;52.944;9.098;2023-08-01T07:49:17;6.35;;;5.10;;
21107;SDS011;10712;52.944;9.098;2023-08-01T07:51:43;6.75;;;5.10;;
21107;SDS011;10712;52.944;9.098;2023-08-01T07:54:09;6.88;;;4.60;;
21107;SDS011;10712;52.944;9.098;2023-08-01T07:56:35;4.35;;;3.88;;
21107;SDS011;10712;52.944;9.098;2023-08-01T07:59:01;6.45;;;3.72;;
21107;SDS011;10712;52.944;9.098;2023-08-01T08:01:27;3.88;;;3.42;;
21107;SDS011;10712;52.944;9.098;2023-08-01T08:03:53;3.45;;;2.60;;
21107;SDS011;10712;52.944;9.098;2023-08-01T08:06:18;3.58;;;2.70;;
21107;SDS011;10712;52.944;9.098;2023-08-01T08:08:46;5.47;;;2.30;;
21107;SDS011;10712;52.944;9.098;2023-08-01T08:11:12;7.05;;;2.10;;
21107;SDS011;10712;52.944;9.098;2023-08-01T08:13:38;1.98;;;1.60;;
21107;SDS011;10712;52.944;9.098;2023-08-01T08:16:04;2.75;;;1.75;;
21107;SDS011;10712;52.944;9.098;2023-08-01T08:18:31;3.70;;;1.85;;
21107;SDS011;10712;52.944;9.098;2023-08-01T08:20:57;3.97;;;2.10;;
21107;SDS011;10712;52.944;9.098;2023-08-01T08:23:22;6.15;;;1.85;;
21107;SDS011;10712;52.944;9.098;2023-08-01T08:25:48;3.25;;;2.58;;
21107;SDS011;10712;52.944;9.098;2023-08-01T08:28:16;8.18;;;3.20;;
21107;SDS011;10712;52.944;9.098;2023-08-01T08:30:55;8.98;;;3.05;;
21107;SDS011;10712;52.944;9.098;2023-08-01T08:33:20;12.50;;;3.50;;
21107;SDS011;10712;52.944;9.098;2023-08-01T08:35:47;6.07;;;2.70;;
21107;SDS011;10712;52.944;9.098;2023-08-01T08:38:13;5.60;;;2.92;;
21107;SDS011;10712;52.944;9.098;2023-08-01T08:40:40;7.47;;;2.80;;
21107;SDS011;10712;52.944;9.098;2023-08-01T08:43:24;5.65;;;2.70;;
21107;SDS011;10712;52.944;9.098;2023-08-01T08:45:51;5.95;;;3.10;;
21107;SDS011;10712;52.944;9.098;2023-08-01T08:48:23;4.30;;;2.42;;
21107;SDS011;10712;52.944;9.098;2023-08-01T08:50:51;3.28;;;2.50;;
21107;SDS011;10712;52.944;9.098;2023-08-01T08:53:17;4.55;;;2.28;;
21107;SDS011;10712;52.944;9.098;2023-08-01T08:55:43;6.05;;;2.45;;
21107;SDS011;10712;52.944;9.098;2023-08-01T08:58:10;2.88;;;2.05;;
21107;SDS011;10712;52.944;9.098;2023-08-01T09:00:36;4.18;;;2.60;;
21107;SDS011;10712;52.944;9.098;2023-08-01T09:03:05;6.38;;;2.75;;
21107;SDS011;10712;52.944;9.098;2023-08-01T09:05:32;5.40;;;2.40;;
21107;SDS011;10712;52.944;9.098;2023-08-01T09:08:16;3.92;;;2.25;;
21107;SDS011;10712;52.944;9.098;2023-08-01T09:10:46;2.88;;;2.05;;
21107;SDS011;10712;52.944;9.098;2023-08-01T09:13:13;4.13;;;2.17;;
21107;SDS011;10712;52.944;9.098;2023-08-01T09:15:40;3.90;;;2.33;;
21107;SDS011;10712;52.944;9.098;2023-08-01T09:18:10;4.18;;;2.28;;
21107;SDS011;10712;52.944;9.098;2023-08-01T09:20:40;6.07;;;2.40;;
21107;SDS011;10712;52.944;9.098;2023-08-01T09:23:12;4.80;;;2.75;;
21107;SDS011;10712;52.944;9.098;2023-08-01T09:25:39;5.57;;;2.55;;
21107;SDS011;10712;52.944;9.098;2023-08-01T09:28:22;7.60;;;2.42;;
21107;SDS011;10712;52.944;9.098;2023-08-01T09:30:50;3.65;;;2.05;;
21107;SDS011;10712;52.944;9.098;2023-08-01T09:33:21;3.22;;;1.73;;
21107;SDS011;10712;52.944;9.098;2023-08-01T09:35:50;5.90;;;1.42;;
21107;SDS011;10712;52.944;9.098;2023-08-01T09:38:17;3.67;;;1.27;;
21107;SDS011;10712;52.944;9.098;2023-08-01T09:40:44;2.22;;;1.45;;
21107;SDS011;10712;52.944;9.098;2023-08-01T09:43:11;2.72;;;1.23;;
21107;SDS011;10712;52.944;9.098;2023-08-01T09:45:48;2.35;;;1.45;;
21107;SDS011;10712;52.944;9.098;2023-08-01T09:48:28;4.60;;;2.00;;
21107;SDS011;10712;52.944;9.098;2023-08-01T09:51:05;10.23;;;2.67;;
21107;SDS011;10712;52.944;9.098;2023-08-01T09:53:55;2.65;;;1.55;;
21107;SDS011;10712;52.944;9.098;2023-08-01T09:56:22;4.68;;;1.92;;
21107;SDS011;10712;52.944;9.098;2023-08-01T09:58:52;4.28;;;2.42;;
21107;SDS011;10712;52.944;9.098;2023-08-01T10:01:21;4.20;;;2.38;;
21107;SDS011;10712;52.944;9.098;2023-08-01T10:03:51;5.68;;;2.17;;
21107;SDS011;10712;52.944;9.098;2023-08-01T10:06:19;4.70;;;1.90;;
21107;SDS011;10712;52.944;9.098;2023-08-01T10:08:47;2.70;;;1.80;;
21107;SDS011;10712;52.944;9.098;2023-08-01T10:11:16;4.05;;;1.33;;
21107;SDS011;10712;52.944;9.098;2023-08-01T10:13:45;1.92;;;1.50;;
21107;SDS011;10712;52.944;9.098;2023-08-01T10:16:12;3.83;;;1.60;;
21107;SDS011;10712;52.944;9.098;2023-08-01T10:18:40;2.95;;;1.60;;
21107;SDS011;10712;52.944;9.098;2023-08-01T10:21:07;3.42;;;1.63;;
21107;SDS011;10712;52.944;9.098;2023-08-01T10:23:41;3.08;;;1.42;;
21107;SDS011;10712;52.944;9.098;2023-08-01T10:26:10;4.32;;;1.20;;
21107;SDS011;10712;52.944;9.098;2023-08-01T10:28:38;4.00;;;0.90;;
21107;SDS011;10712;52.944;9.098;2023-08-01T10:31:15;3.65;;;1.30;;
21107;SDS011;10712;52.944;9.098;2023-08-01T10:33:45;3.20;;;1.02;;
21107;SDS011;10712;52.944;9.098;2023-08-01T10:38:53;2.95;;;1.00;;
21107;SDS011;10712;52.944;9.098;2023-08-01T10:41:28;3.63;;;1.15;;
21107;SDS011;10712;52.944;9.098;2023-08-01T10:46:46;3.30;;;1.48;;
21107;SDS011;10712;52.944;9.098;2023-08-01T10:49:18;1.77;;;1.20;;
21107;SDS011;10712;52.944;9.098;2023-08-01T10:51:46;5.95;;;1.13;;
21107;SDS011;10712;52.944;9.098;2023-08-01T10:54:22;1.98;;;1.10;;
21107;SDS011;10712;52.944;9.098;2023-08-01T10:56:51;1.92;;;0.98;;
21107;SDS011;10712;52.944;9.098;2023-08-01T10:59:20;4.57;;;1.40;;
21107;SDS011;10712;52.944;9.098;2023-08-01T11:01:52;3.97;;;1.30;;
21107;SDS011;10712;52.944;9.098;2023-08-01T11:04:23;3.17;;;1.33;;
21107;SDS011;10712;52.944;9.098;2023-08-01T11:06:50;4.05;;;1.42;;
21107;SDS011;10712;52.944;9.098;2023-08-01T11:09:19;2.97;;;1.30;;
21107;SDS011;10712;52.944;9.098;2023-08-01T11:11:51;2.55;;;0.80;;
21107;SDS011;10712;52.944;9.098;2023-08-01T11:14:20;2.83;;;1.00;;
21107;SDS011;10712;52.944;9.098;2023-08-01T11:16:53;1.95;;;0.85;;
21107;SDS011;10712;52.944;9.098;2023-08-01T11:19:22;2.08;;;0.95;;
21107;SDS011;10712;52.944;9.098;2023-08-01T11:21:50;0.90;;;0.70;;
21107;SDS011;10712;52.944;9.098;2023-08-01T11:24:17;3.63;;;1.60;;
21107;SDS011;10712;52.944;9.098;2023-08-01T11:26:46;1.48;;;0.60;;
21107;SDS011;10712;52.944;9.098;2023-08-01T11:29:14;0.93;;;0.60;;
21107;SDS011;10712;52.944;9.098;2023-08-01T11:31:51;3.67;;;1.10;;
21107;SDS011;10712;52.944;9.098;2023-08-01T11:34:18;1.38;;;0.80;;
21107;SDS011;10712;52.944;9.098;2023-08-01T11:36:43;0.65;;;0.65;;
21107;SDS011;10712;52.944;9.098;2023-08-01T11:39:11;2.05;;;0.70;;
21107;SDS011;10712;52.944;9.098;2023-08-01T11:41:38;1.65;;;1.10;;
21107;SDS011;10712;52.944;9.098;2023-08-01T11:44:04;2.13;;;1.10;;
21107;SDS011;10712;52.944;9.098;2023-08-01T11:46:34;1.73;;;0.70;;
21107;SDS011;10712;52.944;9.098;2023-08-01T11:49:06;0.82;;;0.73;;
21107;SDS011;10712;52.944;9.098;2023-08-01T11:51:40;2.00;;;0.80;;
21107;SDS011;10712;52.944;9.098;2023-08-01T11:54:08;2.08;;;0.90;;
21107;SDS011;10712;52.944;9.098;2023-08-01T11:56:36;1.67;;;0.63;;
21107;SDS011;10712;52.944;9.098;2023-08-01T11:59:13;2.03;;;0.82;;
21107;SDS011;10712;52.944;9.098;2023-08-01T12:01:42;1.42;;;1.10;;
21107;SDS011;10712;52.944;9.098;2023-08-01T12:04:12;2.20;;;0.90;;
21107;SDS011;10712;52.944;9.098;2023-08-01T12:06:54;3.00;;;0.93;;
21107;SDS011;10712;52.944;9.098;2023-08-01T12:09:21;3.03;;;1.13;;
21107;SDS011;10712;52.944;9.098;2023-08-01T12:11:47;1.98;;;0.68;;
21107;SDS011;10712;52.944;9.098;2023-08-01T12:14:27;1.25;;;1.00;;
21107;SDS011;10712;52.944;9.098;2023-08-01T12:16:53;2.47;;;0.90;;
21107;SDS011;10712;52.944;9.098;2023-08-01T12:19:19;2.25;;;0.70;;
21107;SDS011;10712;52.944;9.098;2023-08-01T12:21:46;0.85;;;0.77;;
21107;SDS011;10712;52.944;9.098;2023-08-01T12:24:14;0.77;;;0.70;;
21107;SDS011;10712;52.944;9.098;2023-08-01T12:26:40;1.33;;;0.82;;
21107;SDS011;10712;52.944;9.098;2023-08-01T12:29:06;2.20;;;1.00;;
21107;SDS011;10712;52.944;9.098;2023-08-01T12:31:32;3.63;;;1.23;;
21107;SDS011;10712;52.944;9.098;2023-08-01T12:33:58;1.95;;;0.90;;
21107;SDS011;10712;52.944;9.098;2023-08-01T12:36:24;2.05;;;0.77;;
21107;SDS011;10712;52.944;9.098;2023-08-01T12:38:50;2.22;;;0.90;;
21107;SDS011;10712;52.944;9.098;2023-08-01T12:41:15;1.10;;;0.68;;
21107;SDS011;10712;52.944;9.098;2023-08-01T12:43:41;2.03;;;1.00;;
21107;SDS011;10712;52.944;9.098;2023-08-01T12:46:07;0.98;;;0.65;;
21107;SDS011;10712;52.944;9.098;2023-08-01T12:48:33;3.17;;;1.10;;
21107;SDS011;10712;52.944;9.098;2023-08-01T12:50:59;2.25;;;0.90;;
21107;SDS011;10712;52.944;9.098;2023-08-01T12:53:25;4.25;;;1.00;;
21107;SDS011;10712;52.944;9.098;2023-08-01T12:55:56;1.33;;;0.63;;
21107;SDS011;10712;52.944;9.098;2023-08-01T12:58:22;2.35;;;1.00;;
21107;SDS011;10712;52.944;9.098;2023-08-01T13:00:48;2.40;;;0.73;;
21107;SDS011;10712;52.944;9.098;2023-08-01T13:03:14;2.97;;;1.23;;
21107;SDS011;10712;52.944;9.098;2023-08-01T13:05:40;1.88;;;1.00;;
21107;SDS011;10712;52.944;9.098;2023-08-01T13:08:07;1.85;;;0.90;;
21107;SDS011;10712;52.944;9.098;2023-08-01T13:10:35;5.72;;;1.13;;
21107;SDS011;10712;52.944;9.098;2023-08-01T13:13:03;6.18;;;0.98;;
21107;SDS011;10712;52.944;9.098;2023-08-01T13:15:29;0.85;;;0.63;;
21107;SDS011;10712;52.944;9.098;2023-08-01T13:17:55;2.63;;;0.82;;
21107;SDS011;10712;52.944;9.098;2023-08-01T13:20:22;3.10;;;1.58;;
21107;SDS011;10712;52.944;9.098;2023-08-01T13:22:50;1.33;;;0.70;;
21107;SDS011;10712;52.944;9.098;2023-08-01T13:25:17;3.83;;;0.90;;
21107;SDS011;10712;52.944;9.098;2023-08-01T13:27:47;1.10;;;1.00;;
21107;SDS011;10712;52.944;9.098;2023-08-01T13:30:12;1.92;;;0.75;;
21107;SDS011;10712;52.944;9.098;2023-08-01T13:32:43;4.38;;;1.00;;
21107;SDS011;10712;52.944;9.098;2023-08-01T13:35:10;1.88;;;0.70;;
21107;SDS011;10712;52.944;9.098;2023-08-01T13:37:36;1.40;;;0.60;;
21107;SDS011;10712;52.944;9.098;2023-08-01T13:40:02;1.85;;;0.50;;
21107;SDS011;10712;52.944;9.098;2023-08-01T13:42:29;1.20;;;0.73;;
21107;SDS011;10712;52.944;9.098;2023-08-01T13:44:55;2.95;;;0.57;;
21107;SDS011;10712;52.944;9.098;2023-08-01T13:47:22;1.38;;;0.47;;
21107;SDS011;10712;52.944;9.098;2023-08-01T13:49:47;0.98;;;0.68;;
21107;SDS011;10712;52.944;9.098;2023-08-01T13:52:14;1.33;;;0.70;;
21107;SDS011;10712;52.944;9.098;2023-08-01T13:54:39;3.30;;;0.70;;
21107;SDS011;10712;52.944;9.098;2023-08-01T13:57:05;1.38;;;0.70;;
21107;SDS011;10712;52.944;9.098;2023-08-01T13:59:31;1.85;;;1.05;;
21107;SDS011;10712;52.944;9.098;2023-08-01T14:01:57;1.40;;;0.80;;
21107;SDS011;10712;52.944;9.098;2023-08-01T14:04:23;2.35;;;0.80;;
21107;SDS011;10712;52.944;9.098;2023-08-01T14:06:49;1.02;;;0.70;;
21107;SDS011;10712;52.944;9.098;2023-08-01T14:09:15;0.93;;;0.40;;
21107;SDS011;10712;52.944;9.098;2023-08-01T14:11:41;1.73;;;0.90;;
21107;SDS011;10712;52.944;9.098;2023-08-01T14:14:06;2.78;;;0.82;;
21107;SDS011;10712;52.944;9.098;2023-08-01T14:16:32;1.15;;;0.63;;
21107;SDS011;10712;52.944;9.098;2023-08-01T14:18:58;2.20;;;1.00;;
21107;SDS011;10712;52.944;9.098;2023-08-01T14:21:25;3.65;;;1.00;;
21107;SDS011;10712;52.944;9.098;2023-08-01T14:23:51;2.83;;;0.90;;
21107;SDS011;10712;52.944;9.098;2023-08-01T14:26:16;2.72;;;1.35;;
21107;SDS011;10712;52.944;9.098;2023-08-01T14:28:42;2.25;;;0.90;;
21107;SDS011;10712;52.944;9.098;2023-08-01T14:31:08;0.82;;;0.60;;
21107;SDS011;10712;52.944;9.098;2023-08-01T14:33:34;3.92;;;1.00;;
21107;SDS011;10712;52.944;9.098;2023-08-01T14:36:00;0.63;;;0.63;;
21107;SDS011;10712;52.944;9.098;2023-08-01T14:38:26;2.13;;;0.80;;
21107;SDS011;10712;52.944;9.098;2023-08-01T14:40:52;1.48;;;0.55;;
21107;SDS011;10712;52.944;9.098;2023-08-01T14:43:18;9.68;;;0.95;;
21107;SDS011;10712;52.944;9.098;2023-08-01T14:45:45;3.30;;;0.90;;
21107;SDS011;10712;52.944;9.098;2023-08-01T14:48:11;3.10;;;0.73;;
21107;SDS011;10712;52.944;9.098;2023-08-01T14:50:37;1.23;;;0.65;;